sensor_id;sensor_type;location;lat;lon;timestamp;pressure;altitude;pressure_sealevel;temperature
45034;BMP280;30771;47.988;-4.186;2022-11-18T07:02:35;99308.78;;;8.69
45034;BMP280;30771;47.988;-4.186;2022-11-18T07:05:01;99315.66;;;8.70
45034;BMP280;30771;47.988;-4.186;2022-11-18T07:07:26;99319.28;;;8.69
45034;BMP280;30771;47.988;-4.186;2022-11-18T07:09:51;99326.72;;;8.72
45034;BMP280;30771;47.988;-4.186;2022-11-18T07:12:16;99322.94;;;8.68
45034;BMP280;30771;47.988;-4.186;2022-11-18T07:14:42;99328.75;;;8.70
45034;BMP280;30771;47.988;-4.186;2022-11-18T07:17:07;99323.09;;;8.73
45034;BMP280;30771;47.988;-4.186;2022-11-18T07:19:32;99329.94;;;8.74
45034;BMP280;30771;47.988;-4.186;2022-11-18T07:21:57;99337.16;;;8.79
45034;BMP280;30771;47.988;-4.186;2022-11-18T07:24:23;99341.00;;;8.83
45034;BMP280;30771;47.988;-4.186;2022-11-18T07:26:48;99344.44;;;8.77
45034;BMP280;30771;47.988;-4.186;2022-11-18T07:29:13;99354.31;;;8.81
45034;BMP280;30771;47.988;-4.186;2022-11-18T07:31:39;99365.44;;;8.83
45034;BMP280;30771;47.988;-4.186;2022-11-18T07:34:04;99341.09;;;8.94
45034;BMP280;30771;47.988;-4.186;2022-11-18T07:36:30;99333.09;;;9.07
45034;BMP280;30771;47.988;-4.186;2022-11-18T07:38:58;99334.28;;;9.11
45034;BMP280;30771;47.988;-4.186;2022-11-18T07:41:25;99332.78;;;9.15
45034;BMP280;30771;47.988;-4.186;2022-11-18T07:43:53;99341.88;;;9.19
45034;BMP280;30771;47.988;-4.186;2022-11-18T07:46:30;99341.19;;;9.24
45034;BMP280;30771;47.988;-4.186;2022-11-18T07:48:57;99344.69;;;9.18
45034;BMP280;30771;47.988;-4.186;2022-11-18T07:51:30;99356.00;;;9.18
45034;BMP280;30771;47.988;-4.186;2022-11-18T07:53:55;99351.66;;;9.12
45034;BMP280;30771;47.988;-4.186;2022-11-18T07:56:22;99363.72;;;9.13
45034;BMP280;30771;47.988;-4.186;2022-11-18T07:58:51;99369.63;;;9.09
45034;BMP280;30771;47.988;-4.186;2022-11-18T08:01:19;99378.66;;;9.13
45034;BMP280;30771;47.988;-4.186;2022-11-18T08:03:45;99392.19;;;9.16
45034;BMP280;30771;47.988;-4.186;2022-11-18T08:06:12;99418.84;;;9.20
45034;BMP280;30771;47.988;-4.186;2022-11-18T08:08:38;99456.44;;;9.39
45034;BMP280;30771;47.988;-4.186;2022-11-18T08:11:06;99467.44;;;9.54
45034;BMP280;30771;47.988;-4.186;2022-11-18T08:13:32;99471.97;;;9.65
45034;BMP280;30771;47.988;-4.186;2022-11-18T08:15:58;99456.94;;;9.72
45034;BMP280;30771;47.988;-4.186;2022-11-18T08:18:24;99455.25;;;9.77
45034;BMP280;30771;47.988;-4.186;2022-11-18T08:20:50;99454.59;;;9.82
45034;BMP280;30771;47.988;-4.186;2022-11-18T08:23:16;99454.41;;;9.83
45034;BMP280;30771;47.988;-4.186;2022-11-18T08:25:42;99452.13;;;9.87
45034;BMP280;30771;47.988;-4.186;2022-11-18T08:28:09;99437.38;;;9.86
45034;BMP280;30771;47.988;-4.186;2022-11-18T08:30:34;99441.19;;;9.90
45034;BMP280;30771;47.988;-4.186;2022-11-18T08:33:00;99448.06;;;9.91
45034;BMP280;30771;47.988;-4.186;2022-11-18T08:35:26;99448.06;;;9.91
45034;BMP280;30771;47.988;-4.186;2022-11-18T08:37:52;99453.09;;;9.92
45034;BMP280;30771;47.988;-4.186;2022-11-18T08:40:17;99446.22;;;9.91
45034;BMP280;30771;47.988;-4.186;2022-11-18T08:42:42;99434.91;;;9.91
45034;BMP280;30771;47.988;-4.186;2022-11-18T08:45:08;99455.84;;;9.97
45034;BMP280;30771;47.988;-4.186;2022-11-18T08:47:34;99457.25;;;10.00
45034;BMP280;30771;47.988;-4.186;2022-11-18T08:50:01;99451.13;;;10.06
45034;BMP280;30771;47.988;-4.186;2022-11-18T08:52:26;99458.31;;;10.10
45034;BMP280;30771;47.988;-4.186;2022-11-18T08:54:51;99471.16;;;10.18
45034;BMP280;30771;47.988;-4.186;2022-11-18T08:57:16;99476.00;;;10.22
45034;BMP280;30771;47.988;-4.186;2022-11-18T08:59:42;99491.50;;;10.30
45034;BMP280;30771;47.988;-4.186;2022-11-18T09:02:15;99500.69;;;10.39
45034;BMP280;30771;47.988;-4.186;2022-11-18T09:04:40;99503.69;;;10.42
45034;BMP280;30771;47.988;-4.186;2022-11-18T09:07:05;99512.63;;;10.53
45034;BMP280;30771;47.988;-4.186;2022-11-18T09:09:31;99514.41;;;10.59
45034;BMP280;30771;47.988;-4.186;2022-11-18T09:11:56;99531.34;;;10.63
45034;BMP280;30771;47.988;-4.186;2022-11-18T09:14:21;99535.72;;;10.69
45034;BMP280;30771;47.988;-4.186;2022-11-18T09:16:46;99545.16;;;10.76
45034;BMP280;30771;47.988;-4.186;2022-11-18T09:19:13;99551.94;;;10.84
45034;BMP280;30771;47.988;-4.186;2022-11-18T09:21:39;99550.59;;;10.93
45034;BMP280;30771;47.988;-4.186;2022-11-18T09:24:04;99561.41;;;11.03
45034;BMP280;30771;47.988;-4.186;2022-11-18T09:26:30;99580.44;;;11.16
45034;BMP280;30771;47.988;-4.186;2022-11-18T09:28:55;99579.22;;;11.31
45034;BMP280;30771;47.988;-4.186;2022-11-18T09:31:20;99587.88;;;11.49
45034;BMP280;30771;47.988;-4.186;2022-11-18T09:33:45;99602.69;;;11.73
45034;BMP280;30771;47.988;-4.186;2022-11-18T09:36:17;99604.50;;;11.96
45034;BMP280;30771;47.988;-4.186;2022-11-18T09:38:43;99633.56;;;12.19
45034;BMP280;30771;47.988;-4.186;2022-11-18T09:46:03;99631.06;;;11.37
45034;BMP280;30771;47.988;-4.186;2022-11-18T09:48:30;99590.41;;;11.14
45034;BMP280;30771;47.988;-4.186;2022-11-18T09:50:55;99553.50;;;11.03
45034;BMP280;30771;47.988;-4.186;2022-11-18T09:53:23;99545.38;;;11.04
45034;BMP280;30771;47.988;-4.186;2022-11-18T09:55:49;99526.06;;;10.92
45034;BMP280;30771;47.988;-4.186;2022-11-18T09:58:35;99525.53;;;10.90
45034;BMP280;30771;47.988;-4.186;2022-11-18T10:01:03;99519.28;;;10.85
45034;BMP280;30771;47.988;-4.186;2022-11-18T10:03:33;99519.63;;;10.77
45034;BMP280;30771;47.988;-4.186;2022-11-18T10:11:24;99500.94;;;10.96
45034;BMP280;30771;47.988;-4.186;2022-11-18T10:16:48;99498.88;;;11.10
45034;BMP280;30771;47.988;-4.186;2022-11-18T10:19:33;99502.91;;;11.12
45034;BMP280;30771;47.988;-4.186;2022-11-18T10:25:14;99498.13;;;11.21
45034;BMP280;30771;47.988;-4.186;2022-11-18T10:27:42;99493.88;;;11.32
45034;BMP280;30771;47.988;-4.186;2022-11-18T10:30:25;99504.97;;;11.34
45034;BMP280;30771;47.988;-4.186;2022-11-18T10:33:17;99499.72;;;11.34
45034;BMP280;30771;47.988;-4.186;2022-11-18T10:35:42;99511.88;;;11.35
45034;BMP280;30771;47.988;-4.186;2022-11-18T10:41:06;99515.41;;;11.52
45034;BMP280;30771;47.988;-4.186;2022-11-18T10:46:28;99517.06;;;11.64
45034;BMP280;30771;47.988;-4.186;2022-11-18T10:51:39;99533.53;;;11.83
45034;BMP280;30771;47.988;-4.186;2022-11-18T10:54:18;99539.94;;;11.98
45034;BMP280;30771;47.988;-4.186;2022-11-18T10:59:35;99538.44;;;12.14
45034;BMP280;30771;47.988;-4.186;2022-11-18T11:04:50;99553.00;;;12.16
45034;BMP280;30771;47.988;-4.186;2022-11-18T11:07:33;99549.66;;;12.09
45034;BMP280;30771;47.988;-4.186;2022-11-18T11:10:20;99551.53;;;12.09
45034;BMP280;30771;47.988;-4.186;2022-11-18T11:12:50;99565.88;;;12.01
45034;BMP280;30771;47.988;-4.186;2022-11-18T11:17:53;99572.06;;;11.84
45034;BMP280;30771;47.988;-4.186;2022-11-18T11:20:24;99577.38;;;11.72
45034;BMP280;30771;47.988;-4.186;2022-11-18T11:22:50;99595.06;;;11.54
45034;BMP280;30771;47.988;-4.186;2022-11-18T11:25:18;99609.63;;;11.45
45034;BMP280;30771;47.988;-4.186;2022-11-18T11:30:53;99645.31;;;11.29
45034;BMP280;30771;47.988;-4.186;2022-11-18T11:36:15;99645.41;;;11.52
45034;BMP280;30771;47.988;-4.186;2022-11-18T11:41:21;99654.72;;;11.78
45034;BMP280;30771;47.988;-4.186;2022-11-18T11:49:52;99662.94;;;11.99
45034;BMP280;30771;47.988;-4.186;2022-11-18T11:52:42;99666.72;;;12.15
45034;BMP280;30771;47.988;-4.186;2022-11-18T12:00:18;99700.09;;;12.33
45034;BMP280;30771;47.988;-4.186;2022-11-18T12:05:29;99675.44;;;12.15
45034;BMP280;30771;47.988;-4.186;2022-11-18T12:08:00;99638.63;;;12.09
45034;BMP280;30771;47.988;-4.186;2022-11-18T12:10:29;99645.59;;;12.15
45034;BMP280;30771;47.988;-4.186;2022-11-18T12:19:02;99643.97;;;11.91
45034;BMP280;30771;47.988;-4.186;2022-11-18T12:21:57;99643.72;;;11.81
45034;BMP280;30771;47.988;-4.186;2022-11-18T12:24:32;99631.00;;;11.78
45034;BMP280;30771;47.988;-4.186;2022-11-18T12:29:52;99601.53;;;11.69
45034;BMP280;30771;47.988;-4.186;2022-11-18T12:32:37;99596.84;;;11.71
45034;BMP280;30771;47.988;-4.186;2022-11-18T12:43:00;99568.94;;;11.75
45034;BMP280;30771;47.988;-4.186;2022-11-18T12:48:31;99597.75;;;11.77
45034;BMP280;30771;47.988;-4.186;2022-11-18T12:50:57;99614.50;;;11.82
45034;BMP280;30771;47.988;-4.186;2022-11-18T12:53:39;99685.72;;;11.82
45034;BMP280;30771;47.988;-4.186;2022-11-18T12:56:11;99726.88;;;11.83
45034;BMP280;30771;47.988;-4.186;2022-11-18T12:58:36;99721.97;;;11.87
45034;BMP280;30771;47.988;-4.186;2022-11-18T13:01:07;99725.53;;;11.92
45034;BMP280;30771;47.988;-4.186;2022-11-18T13:03:32;99714.06;;;11.98
45034;BMP280;30771;47.988;-4.186;2022-11-18T13:06:22;99727.25;;;12.10
45034;BMP280;30771;47.988;-4.186;2022-11-18T13:08:49;99729.00;;;12.16
45034;BMP280;30771;47.988;-4.186;2022-11-18T13:11:17;99710.88;;;12.19
45034;BMP280;30771;47.988;-4.186;2022-11-18T13:13:43;99706.31;;;12.27
45034;BMP280;30771;47.988;-4.186;2022-11-18T13:16:21;99714.69;;;12.35
45034;BMP280;30771;47.988;-4.186;2022-11-18T13:18:51;99703.31;;;12.35
45034;BMP280;30771;47.988;-4.186;2022-11-18T13:21:25;99721.59;;;12.36
45034;BMP280;30771;47.988;-4.186;2022-11-18T13:23:59;99724.56;;;12.28
45034;BMP280;30771;47.988;-4.186;2022-11-18T13:26:31;99737.84;;;12.33
45034;BMP280;30771;47.988;-4.186;2022-11-18T13:32:05;99763.09;;;12.29
45034;BMP280;30771;47.988;-4.186;2022-11-18T13:34:41;99762.38;;;12.10
45034;BMP280;30771;47.988;-4.186;2022-11-18T13:37:36;99750.06;;;11.93
45034;BMP280;30771;47.988;-4.186;2022-11-18T13:40:01;99734.53;;;11.73
45034;BMP280;30771;47.988;-4.186;2022-11-18T13:42:30;99722.56;;;11.59
45034;BMP280;30771;47.988;-4.186;2022-11-18T13:44:57;99718.84;;;11.49
45034;BMP280;30771;47.988;-4.186;2022-11-18T13:52:39;99705.59;;;11.26
45034;BMP280;30771;47.988;-4.186;2022-11-18T13:55:11;99697.81;;;11.31
45034;BMP280;30771;47.988;-4.186;2022-11-18T13:57:37;99705.88;;;11.36
45034;BMP280;30771;47.988;-4.186;2022-11-18T14:00:06;99714.13;;;11.39
45034;BMP280;30771;47.988;-4.186;2022-11-18T14:02:38;99724.88;;;11.38
45034;BMP280;30771;47.988;-4.186;2022-11-18T14:05:05;99722.00;;;11.28
45034;BMP280;30771;47.988;-4.186;2022-11-18T14:07:33;99727.00;;;11.29
45034;BMP280;30771;47.988;-4.186;2022-11-18T14:10:07;99728.06;;;11.28
45034;BMP280;30771;47.988;-4.186;2022-11-18T14:12:34;99725.19;;;11.30
45034;BMP280;30771;47.988;-4.186;2022-11-18T14:17:56;99741.88;;;11.42
45034;BMP280;30771;47.988;-4.186;2022-11-18T14:20:23;99739.16;;;11.48
45034;BMP280;30771;47.988;-4.186;2022-11-18T14:22:54;99739.06;;;11.55
45034;BMP280;30771;47.988;-4.186;2022-11-18T14:27:55;99729.81;;;11.64
45034;BMP280;30771;47.988;-4.186;2022-11-18T14:33:28;99733.66;;;11.79
45034;BMP280;30771;47.988;-4.186;2022-11-18T14:35:54;99732.53;;;11.87
45034;BMP280;30771;47.988;-4.186;2022-11-18T14:41:00;99736.31;;;12.02
45034;BMP280;30771;47.988;-4.186;2022-11-18T14:43:26;99736.44;;;12.07
45034;BMP280;30771;47.988;-4.186;2022-11-18T14:45:54;99741.25;;;12.10
45034;BMP280;30771;47.988;-4.186;2022-11-18T14:48:22;99750.00;;;12.11
45034;BMP280;30771;47.988;-4.186;2022-11-18T14:50:48;99755.28;;;12.11
45034;BMP280;30771;47.988;-4.186;2022-11-18T14:53:14;99761.44;;;12.05
45034;BMP280;30771;47.988;-4.186;2022-11-18T14:55:40;99786.09;;;11.87
45034;BMP280;30771;47.988;-4.186;2022-11-18T14:58:11;99762.50;;;11.63
45034;BMP280;30771;47.988;-4.186;2022-11-18T15:00:37;99761.50;;;11.46
45034;BMP280;30771;47.988;-4.186;2022-11-18T15:03:02;99749.16;;;11.28
45034;BMP280;30771;47.988;-4.186;2022-11-18T15:05:27;99735.28;;;11.14
45034;BMP280;30771;47.988;-4.186;2022-11-18T15:07:52;99730.22;;;11.01
45034;BMP280;30771;47.988;-4.186;2022-11-18T15:10:18;99715.94;;;10.91
45034;BMP280;30771;47.988;-4.186;2022-11-18T15:12:43;99712.44;;;10.79
45034;BMP280;30771;47.988;-4.186;2022-11-18T15:15:08;99713.00;;;10.81
45034;BMP280;30771;47.988;-4.186;2022-11-18T15:17:34;99704.94;;;10.76
45034;BMP280;30771;47.988;-4.186;2022-11-18T15:19:59;99688.19;;;10.70
45034;BMP280;30771;47.988;-4.186;2022-11-18T15:22:24;99688.66;;;10.67
45034;BMP280;30771;47.988;-4.186;2022-11-18T15:24:49;99681.63;;;10.61
45034;BMP280;30771;47.988;-4.186;2022-11-18T15:27:15;99678.03;;;10.56
45034;BMP280;30771;47.988;-4.186;2022-11-18T15:29:40;99674.00;;;10.53
45034;BMP280;30771;47.988;-4.186;2022-11-18T15:32:05;99665.38;;;10.46
45034;BMP280;30771;47.988;-4.186;2022-11-18T15:34:31;99663.16;;;10.43
45034;BMP280;30771;47.988;-4.186;2022-11-18T15:36:56;99672.94;;;10.43
45034;BMP280;30771;47.988;-4.186;2022-11-18T15:39:21;99662.00;;;10.39
45034;BMP280;30771;47.988;-4.186;2022-11-18T15:41:46;99654.97;;;10.33
45034;BMP280;30771;47.988;-4.186;2022-11-18T15:44:12;99640.31;;;10.26
45034;BMP280;30771;47.988;-4.186;2022-11-18T15:46:37;99645.91;;;10.29
45034;BMP280;30771;47.988;-4.186;2022-11-18T15:49:03;99628.38;;;10.23
45034;BMP280;30771;47.988;-4.186;2022-11-18T15:51:28;99640.91;;;10.21
45034;BMP280;30771;47.988;-4.186;2022-11-18T15:53:54;99635.31;;;10.18
45034;BMP280;30771;47.988;-4.186;2022-11-18T16:01:16;99619.47;;;9.99
45034;BMP280;30771;47.988;-4.186;2022-11-18T16:03:41;99613.84;;;9.96
45034;BMP280;30771;47.988;-4.186;2022-11-18T16:06:06;99622.19;;;9.93
45034;BMP280;30771;47.988;-4.186;2022-11-18T16:08:32;99607.22;;;9.87
45034;BMP280;30771;47.988;-4.186;2022-11-18T16:10:57;99606.63;;;9.85
45034;BMP280;30771;47.988;-4.186;2022-11-18T16:13:22;99608.09;;;9.81
45034;BMP280;30771;47.988;-4.186;2022-11-18T16:15:47;99597.19;;;9.77
45034;BMP280;30771;47.988;-4.186;2022-11-18T16:18:15;99612.78;;;9.79
45034;BMP280;30771;47.988;-4.186;2022-11-18T16:20:40;99619.25;;;9.76
45034;BMP280;30771;47.988;-4.186;2022-11-18T16:23:06;99613.03;;;9.71
45034;BMP280;30771;47.988;-4.186;2022-11-18T16:25:31;99607.78;;;9.71
45034;BMP280;30771;47.988;-4.186;2022-11-18T16:27:56;99610.41;;;9.71
45034;BMP280;30771;47.988;-4.186;2022-11-18T16:30:21;99622.31;;;9.73
45034;BMP280;30771;47.988;-4.186;2022-11-18T16:32:50;99642.75;;;9.71
45034;BMP280;30771;47.988;-4.186;2022-11-18T16:35:15;99646.44;;;9.64
45034;BMP280;30771;47.988;-4.186;2022-11-18T16:37:40;99650.13;;;9.56
45034;BMP280;30771;47.988;-4.186;2022-11-18T16:40:06;99657.03;;;9.51
45034;BMP280;30771;47.988;-4.186;2022-11-18T16:42:32;99662.13;;;9.46
45034;BMP280;30771;47.988;-4.186;2022-11-18T16:44:57;99671.66;;;9.40
45034;BMP280;30771;47.988;-4.186;2022-11-18T16:47:23;99662.81;;;9.28
45034;BMP280;30771;47.988;-4.186;2022-11-18T16:49:49;99670.69;;;9.28
45034;BMP280;30771;47.988;-4.186;2022-11-18T16:52:14;99668.34;;;9.20
45034;BMP280;30771;47.988;-4.186;2022-11-18T16:54:39;99669.38;;;9.12
45034;BMP280;30771;47.988;-4.186;2022-11-18T16:57:04;99674.44;;;9.07
45034;BMP280;30771;47.988;-4.186;2022-11-18T16:59:30;99679.88;;;9.06
45034;BMP280;30771;47.988;-4.186;2022-11-18T17:01:57;99674.88;;;8.98
45034;BMP280;30771;47.988;-4.186;2022-11-18T17:04:24;99678.69;;;8.95
45034;BMP280;30771;47.988;-4.186;2022-11-18T17:06:50;99674.66;;;8.86
45034;BMP280;30771;47.988;-4.186;2022-11-18T17:09:18;99671.69;;;8.83
45034;BMP280;30771;47.988;-4.186;2022-11-18T17:11:44;99670.28;;;8.80
45034;BMP280;30771;47.988;-4.186;2022-11-18T17:14:09;99666.66;;;8.75
45034;BMP280;30771;47.988;-4.186;2022-11-18T17:16:34;99664.44;;;8.72
45034;BMP280;30771;47.988;-4.186;2022-11-18T17:19:00;99664.84;;;8.69
45034;BMP280;30771;47.988;-4.186;2022-11-18T17:21:26;99667.66;;;8.67
45034;BMP280;30771;47.988;-4.186;2022-11-18T17:23:53;99654.19;;;8.64
45034;BMP280;30771;47.988;-4.186;2022-11-18T17:26:23;99664.84;;;8.62
45034;BMP280;30771;47.988;-4.186;2022-11-18T17:28:49;99659.63;;;8.56
45034;BMP280;30771;47.988;-4.186;2022-11-18T17:31:17;99654.78;;;8.53
45034;BMP280;30771;47.988;-4.186;2022-11-18T17:33:43;99655.00;;;8.45
45034;BMP280;30771;47.988;-4.186;2022-11-18T17:36:13;99660.84;;;8.47
45034;BMP280;30771;47.988;-4.186;2022-11-18T17:38:42;99663.06;;;8.43
45034;BMP280;30771;47.988;-4.186;2022-11-18T17:41:09;99661.66;;;8.41
45034;BMP280;30771;47.988;-4.186;2022-11-18T17:43:35;99666.47;;;8.37
45034;BMP280;30771;47.988;-4.186;2022-11-18T17:46:01;99673.16;;;8.33
45034;BMP280;30771;47.988;-4.186;2022-11-18T17:48:28;99666.72;;;8.29
45034;BMP280;30771;47.988;-4.186;2022-11-18T17:50:55;99662.47;;;8.28
45034;BMP280;30771;47.988;-4.186;2022-11-18T17:53:26;99653.00;;;8.27
45034;BMP280;30771;47.988;-4.186;2022-11-18T17:55:51;99660.06;;;8.26
45034;BMP280;30771;47.988;-4.186;2022-11-18T17:58:16;99657.22;;;8.28
45034;BMP280;30771;47.988;-4.186;2022-11-18T18:00:42;99652.59;;;8.23
45034;BMP280;30771;47.988;-4.186;2022-11-18T18:03:07;99661.47;;;8.29
45034;BMP280;30771;47.988;-4.186;2022-11-18T18:05:32;99656.41;;;8.27
45034;BMP280;30771;47.988;-4.186;2022-11-18T18:07:58;99658.66;;;8.24
45034;BMP280;30771;47.988;-4.186;2022-11-18T18:10:23;99654.81;;;8.20
45034;BMP280;30771;47.988;-4.186;2022-11-18T18:12:49;99652.78;;;8.15
45034;BMP280;30771;47.988;-4.186;2022-11-18T18:15:14;99653.41;;;8.11
45034;BMP280;30771;47.988;-4.186;2022-11-18T18:17:39;99651.97;;;8.08
45034;BMP280;30771;47.988;-4.186;2022-11-18T18:20:05;99651.00;;;8.09
45034;BMP280;30771;47.988;-4.186;2022-11-18T18:22:30;99648.56;;;8.08
45034;BMP280;30771;47.988;-4.186;2022-11-18T18:24:55;99650.19;;;8.09
45034;BMP280;30771;47.988;-4.186;2022-11-18T18:27:20;99650.38;;;8.07
45034;BMP280;30771;47.988;-4.186;2022-11-18T18:29:45;99647.56;;;8.09
45034;BMP280;30771;47.988;-4.186;2022-11-18T18:32:11;99650.19;;;8.09
45034;BMP280;30771;47.988;-4.186;2022-11-18T18:34:36;99657.06;;;8.10
45034;BMP280;30771;47.988;-4.186;2022-11-18T18:37:01;99650.56;;;8.06
45034;BMP280;30771;47.988;-4.186;2022-11-18T18:39:26;99647.94;;;8.06
45034;BMP280;30771;47.988;-4.186;2022-11-18T18:41:51;99651.00;;;8.09
45034;BMP280;30771;47.988;-4.186;2022-11-18T18:44:17;99654.22;;;8.11
45034;BMP280;30771;47.988;-4.186;2022-11-18T18:46:42;99654.00;;;8.13
45034;BMP280;30771;47.988;-4.186;2022-11-18T18:49:11;99660.88;;;8.14
45034;BMP280;30771;47.988;-4.186;2022-11-18T18:51:41;99659.81;;;8.15
45034;BMP280;30771;47.988;-4.186;2022-11-18T18:54:08;99658.03;;;8.15
45034;BMP280;30771;47.988;-4.186;2022-11-18T18:56:33;99664.91;;;8.16
45034;BMP280;30771;47.988;-4.186;2022-11-18T18:58:58;99676.19;;;8.17
45034;BMP280;30771;47.988;-4.186;2022-11-18T19:01:24;99678.00;;;8.16
45034;BMP280;30771;47.988;-4.186;2022-11-18T19:03:56;99677.19;;;8.16
45034;BMP280;30771;47.988;-4.186;2022-11-18T19:06:22;99676.59;;;8.20
45034;BMP280;30771;47.988;-4.186;2022-11-18T19:08:48;99674.16;;;8.25
45034;BMP280;30771;47.988;-4.186;2022-11-18T19:11:14;99682.25;;;8.30
45034;BMP280;30771;47.988;-4.186;2022-11-18T19:13:39;99678.81;;;8.37
45034;BMP280;30771;47.988;-4.186;2022-11-18T19:16:04;99676.19;;;8.43
45034;BMP280;30771;47.988;-4.186;2022-11-18T19:18:32;99690.50;;;8.47
45034;BMP280;30771;47.988;-4.186;2022-11-18T19:20:57;99696.97;;;8.51
45034;BMP280;30771;47.988;-4.186;2022-11-18T19:23:22;99701.03;;;8.54
45034;BMP280;30771;47.988;-4.186;2022-11-18T19:25:48;99700.00;;;8.55
45034;BMP280;30771;47.988;-4.186;2022-11-18T19:28:13;99712.28;;;8.54
45034;BMP280;30771;47.988;-4.186;2022-11-18T19:30:38;99720.97;;;8.55
45034;BMP280;30771;47.988;-4.186;2022-11-18T19:33:03;99730.66;;;8.54
45034;BMP280;30771;47.988;-4.186;2022-11-18T19:35:28;99740.56;;;8.52
45034;BMP280;30771;47.988;-4.186;2022-11-18T19:37:54;99745.41;;;8.49
45034;BMP280;30771;47.988;-4.186;2022-11-18T19:40:19;99761.31;;;8.47
45034;BMP280;30771;47.988;-4.186;2022-11-18T19:42:44;99769.81;;;8.43
45034;BMP280;30771;47.988;-4.186;2022-11-18T19:45:09;99769.41;;;8.39
45034;BMP280;30771;47.988;-4.186;2022-11-18T19:47:35;99773.03;;;8.38
45034;BMP280;30771;47.988;-4.186;2022-11-18T19:50:00;99769.41;;;8.39
45034;BMP280;30771;47.988;-4.186;2022-11-18T19:52:26;99765.75;;;8.40
45034;BMP280;30771;47.988;-4.186;2022-11-18T19:54:52;99776.09;;;8.42
45034;BMP280;30771;47.988;-4.186;2022-11-18T19:57:17;99777.69;;;8.43
45034;BMP280;30771;47.988;-4.186;2022-11-18T19:59:42;99780.91;;;8.45
45034;BMP280;30771;47.988;-4.186;2022-11-18T20:02:08;99779.88;;;8.46
45034;BMP280;30771;47.988;-4.186;2022-11-18T20:04:34;99788.00;;;8.44
45034;BMP280;30771;47.988;-4.186;2022-11-18T20:06:59;99791.81;;;8.42
45034;BMP280;30771;47.988;-4.186;2022-11-18T20:09:24;99793.81;;;8.40
45034;BMP280;30771;47.988;-4.186;2022-11-18T20:11:49;99799.47;;;8.37
45034;BMP280;30771;47.988;-4.186;2022-11-18T20:14:14;99799.47;;;8.37
45034;BMP280;30771;47.988;-4.186;2022-11-18T20:16:40;99802.09;;;8.37
45034;BMP280;30771;47.988;-4.186;2022-11-18T20:19:05;99801.88;;;8.38
45034;BMP280;30771;47.988;-4.186;2022-11-18T20:21:30;99812.59;;;8.43
45034;BMP280;30771;47.988;-4.186;2022-11-18T20:23:56;99815.84;;;8.45
45034;BMP280;30771;47.988;-4.186;2022-11-18T20:26:26;99826.13;;;8.47
45034;BMP280;30771;47.988;-4.186;2022-11-18T20:28:51;99822.28;;;8.49
45034;BMP280;30771;47.988;-4.186;2022-11-18T20:31:17;99826.53;;;8.50
45034;BMP280;30771;47.988;-4.186;2022-11-18T20:33:44;99823.91;;;8.50
45034;BMP280;30771;47.988;-4.186;2022-11-18T20:36:17;99827.13;;;8.52
45034;BMP280;30771;47.988;-4.186;2022-11-18T20:38:42;99809.78;;;8.51
45034;BMP280;30771;47.988;-4.186;2022-11-18T20:41:11;99813.41;;;8.50
45034;BMP280;30771;47.988;-4.186;2022-11-18T20:43:37;99803.94;;;8.49
45034;BMP280;30771;47.988;-4.186;2022-11-18T20:46:03;99798.03;;;8.47
45034;BMP280;30771;47.988;-4.186;2022-11-18T20:48:29;99790.38;;;8.46
45034;BMP280;30771;47.988;-4.186;2022-11-18T20:50:54;99771.63;;;8.42
45034;BMP280;30771;47.988;-4.186;2022-11-18T20:53:19;99766.56;;;8.41
45034;BMP280;30771;47.988;-4.186;2022-11-18T20:55:47;99773.63;;;8.40
45034;BMP280;30771;47.988;-4.186;2022-11-18T20:58:13;99767.78;;;8.38
45034;BMP280;30771;47.988;-4.186;2022-11-18T21:00:40;99757.91;;;8.33
45034;BMP280;30771;47.988;-4.186;2022-11-18T21:03:05;99747.63;;;8.32
45034;BMP280;30771;47.988;-4.186;2022-11-18T21:05:31;99745.00;;;8.32
45034;BMP280;30771;47.988;-4.186;2022-11-18T21:07:56;99730.88;;;8.33
45034;BMP280;30771;47.988;-4.186;2022-11-18T21:10:22;99725.63;;;8.33
45034;BMP280;30771;47.988;-4.186;2022-11-18T21:12:47;99728.03;;;8.34
45034;BMP280;30771;47.988;-4.186;2022-11-18T21:15:12;99720.16;;;8.34
45034;BMP280;30771;47.988;-4.186;2022-11-18T21:17:37;99723.59;;;8.35
45034;BMP280;30771;47.988;-4.186;2022-11-18T21:20:02;99719.97;;;8.36
45034;BMP280;30771;47.988;-4.186;2022-11-18T21:22:28;99719.75;;;8.38
45034;BMP280;30771;47.988;-4.186;2022-11-18T21:24:53;99726.63;;;8.39
45034;BMP280;30771;47.988;-4.186;2022-11-18T21:27:18;99720.34;;;8.40
45034;BMP280;30771;47.988;-4.186;2022-11-18T21:29:43;99726.41;;;8.40
45034;BMP280;30771;47.988;-4.186;2022-11-18T21:32:08;99728.22;;;8.40
45034;BMP280;30771;47.988;-4.186;2022-11-18T21:34:34;99734.28;;;8.40
45034;BMP280;30771;47.988;-4.186;2022-11-18T21:36:59;99735.31;;;8.39
45034;BMP280;30771;47.988;-4.186;2022-11-18T21:39:24;99735.91;;;8.41
45034;BMP280;30771;47.988;-4.186;2022-11-18T21:41:49;99740.13;;;8.42
45034;BMP280;30771;47.988;-4.186;2022-11-18T21:44:14;99738.53;;;8.41
45034;BMP280;30771;47.988;-4.186;2022-11-18T21:46:40;99739.53;;;8.40
45034;BMP280;30771;47.988;-4.186;2022-11-18T21:49:05;99750.63;;;8.35
45034;BMP280;30771;47.988;-4.186;2022-11-18T21:51:31;99750.63;;;8.29
45034;BMP280;30771;47.988;-4.186;2022-11-18T21:53:57;99750.19;;;8.25
45034;BMP280;30771;47.988;-4.186;2022-11-18T21:56:23;99740.94;;;8.23
45034;BMP280;30771;47.988;-4.186;2022-11-18T21:58:49;99737.94;;;8.19
45034;BMP280;30771;47.988;-4.186;2022-11-18T22:01:16;99736.69;;;8.15
45034;BMP280;30771;47.988;-4.186;2022-11-18T22:03:43;99740.53;;;8.13
45034;BMP280;30771;47.988;-4.186;2022-11-18T22:06:09;99739.31;;;8.09
45034;BMP280;30771;47.988;-4.186;2022-11-18T22:08:34;99744.34;;;8.04
45034;BMP280;30771;47.988;-4.186;2022-11-18T22:11:00;99742.13;;;8.01
45034;BMP280;30771;47.988;-4.186;2022-11-18T22:13:25;99744.13;;;7.99
45034;BMP280;30771;47.988;-4.186;2022-11-18T22:15:57;99752.00;;;7.99
45034;BMP280;30771;47.988;-4.186;2022-11-18T22:18:22;99743.13;;;8.00
45034;BMP280;30771;47.988;-4.186;2022-11-18T22:20:47;99734.88;;;8.03
45034;BMP280;30771;47.988;-4.186;2022-11-18T22:23:13;99727.41;;;8.06
45034;BMP280;30771;47.988;-4.186;2022-11-18T22:25:38;99725.22;;;8.10
45034;BMP280;30771;47.988;-4.186;2022-11-18T22:28:03;99727.41;;;8.13
45034;BMP280;30771;47.988;-4.186;2022-11-18T22:30:28;99724.38;;;8.16
45034;BMP280;30771;47.988;-4.186;2022-11-18T22:32:53;99723.38;;;8.17
45034;BMP280;30771;47.988;-4.186;2022-11-18T22:35:18;99717.72;;;8.20
45034;BMP280;30771;47.988;-4.186;2022-11-18T22:37:43;99719.97;;;8.23
45034;BMP280;30771;47.988;-4.186;2022-11-18T22:40:09;99719.78;;;8.24
45034;BMP280;30771;47.988;-4.186;2022-11-18T22:42:34;99731.28;;;8.23
45034;BMP280;30771;47.988;-4.186;2022-11-18T22:44:59;99733.28;;;8.21